createdAt,value
2019-04-06T00:04:07.562Z,41.77
2019-04-06T00:09:14.166Z,42.00
2019-04-06T00:14:20.661Z,42.95
2019-04-06T00:19:28.914Z,41.77
2019-04-06T00:24:35.534Z,44.37
2019-04-06T00:29:42.114Z,42.03
2019-04-06T00:34:48.606Z,41.83
2019-04-06T00:39:55.241Z,42.45
2019-04-06T00:45:02.768Z,41.47
2019-04-06T00:50:10.930Z,42.90
2019-04-06T00:55:17.315Z,41.73
2019-04-06T01:00:23.700Z,41.60
2019-04-06T01:05:30.599Z,41.13
2019-04-06T01:10:37.054Z,40.93
2019-04-06T01:15:43.375Z,41.93
2019-04-06T01:20:49.724Z,41.13
2019-04-06T01:26:06.699Z,41.47
2019-04-06T01:31:07.075Z,41.47
2019-04-06T01:36:13.799Z,41.13
2019-04-06T01:41:20.139Z,41.73
2019-04-06T01:46:28.470Z,41.17
2019-04-06T01:51:35.237Z,41.60
2019-04-06T01:56:43.552Z,41.48
2019-04-06T02:01:57.151Z,41.17
2019-04-06T02:07:03.680Z,44.00
2019-04-06T02:12:10.190Z,44.83
2019-04-06T02:17:16.616Z,43.30
2019-04-06T02:22:22.932Z,45.40
2019-04-06T02:27:29.568Z,45.73
2019-04-06T02:32:43.632Z,43.83
2019-04-06T02:37:55.609Z,43.80
2019-04-06T02:43:09.950Z,43.80
2019-04-06T02:48:16.345Z,43.77
2019-04-06T02:53:22.812Z,46.18
2019-04-06T02:58:29.187Z,45.23
2019-04-06T03:03:36.155Z,43.03
2019-04-06T03:08:44.286Z,44.47
2019-04-06T03:13:51.745Z,44.27
2019-04-06T03:18:58.049Z,44.80
2019-04-06T03:24:05.330Z,45.53
2019-04-06T03:29:12.332Z,45.00
2019-04-06T03:34:21.570Z,44.80
2019-04-06T03:39:26.829Z,43.50
2019-04-06T03:44:33.700Z,46.03
2019-04-06T03:49:40.120Z,44.77
2019-04-06T03:54:47.663Z,44.37
2019-04-06T03:59:54.043Z,44.73
2019-04-06T04:05:00.436Z,46.63
2019-04-06T04:10:08.367Z,47.07
2019-04-06T04:15:14.971Z,47.25
2019-04-06T04:20:21.316Z,45.60
2019-04-06T04:25:27.817Z,47.93
2019-04-06T04:30:34.968Z,47.27
2019-04-06T04:35:41.603Z,48.07
2019-04-06T04:40:47.974Z,47.87
2019-04-06T04:45:54.643Z,47.10
2019-04-06T04:51:02.811Z,45.10
2019-04-06T04:56:09.303Z,47.10
2019-04-06T05:01:15.573Z,47.38
2019-04-06T05:06:22.045Z,45.93
2019-04-06T05:11:28.704Z,49.53
2019-04-06T05:16:35.007Z,47.90
2019-04-06T05:21:41.237Z,46.23
2019-04-06T05:26:47.469Z,46.53
2019-04-06T05:31:53.876Z,45.97
2019-04-06T05:37:00.258Z,44.95
2019-04-06T05:42:07.009Z,44.93
2019-04-06T05:47:13.483Z,47.43
2019-04-06T05:52:20.852Z,44.08
2019-04-06T05:57:27.384Z,43.83
2019-04-06T06:02:33.715Z,45.85
2019-04-06T06:07:40.038Z,43.23
2019-04-06T06:12:46.628Z,43.60
2019-04-06T06:17:56.809Z,41.27
2019-04-06T06:23:03.164Z,41.33
2019-04-06T06:28:15.249Z,39.92
2019-04-06T06:33:18.013Z,38.80
2019-04-06T06:38:24.772Z,38.57
2019-04-06T06:43:32.120Z,37.43
2019-04-06T06:48:38.719Z,38.13
2019-04-06T06:53:45.886Z,35.30
2019-04-06T06:58:52.214Z,35.20
2019-04-06T07:03:58.977Z,32.42
2019-04-06T07:09:07.219Z,31.43
2019-04-06T07:14:15.178Z,29.72
2019-04-06T07:19:21.883Z,28.90
2019-04-06T07:24:28.194Z,25.17
2019-04-06T07:29:34.584Z,25.67
2019-04-06T07:34:41.123Z,26.52
2019-04-06T07:39:47.520Z,25.10
2019-04-06T07:44:55.078Z,24.03
2019-04-06T07:50:01.539Z,24.82
2019-04-06T07:55:08.531Z,24.40
2019-04-06T08:00:15.122Z,23.92
2019-04-06T08:05:21.638Z,22.87
2019-04-06T08:10:28.211Z,23.10
2019-04-06T08:15:35.253Z,21.87
2019-04-06T08:20:42.827Z,22.80
2019-04-06T08:25:49.335Z,21.87
2019-04-06T08:38:48.024Z,22.87
2019-04-06T08:43:54.259Z,23.33
2019-04-06T08:49:00.543Z,23.83
2019-04-06T08:54:07.491Z,22.17
2019-04-06T08:59:15.127Z,22.43
2019-04-06T09:04:22.307Z,21.75
2019-04-06T09:09:31.221Z,19.87
2019-04-06T09:14:38.477Z,15.53
2019-04-06T09:19:46.663Z,16.77
2019-04-06T09:24:53.123Z,16.53
2019-04-06T09:29:59.456Z,16.57
2019-04-06T09:35:07.078Z,14.33
2019-04-06T09:40:15.724Z,16.42
2019-04-06T09:45:56.283Z,17.17
2019-04-06T09:51:22.229Z,16.73
2019-04-06T09:56:40.148Z,18.23
2019-04-06T10:02:05.538Z,17.77
2019-04-06T10:07:37.204Z,19.20
2019-04-06T10:13:09.947Z,18.53
2019-04-06T10:18:26.255Z,20.03
2019-04-06T10:23:54.974Z,20.33
2019-04-06T10:29:47.980Z,20.87
2019-04-06T10:35:24.904Z,21.97
2019-04-06T10:40:46.379Z,21.37
2019-04-06T10:46:14.259Z,21.67
2019-04-06T10:51:58.072Z,22.75
2019-04-06T10:57:26.520Z,22.10
2019-04-06T11:02:56.195Z,22.87
2019-04-06T11:08:30.467Z,22.93
2019-04-06T11:13:54.955Z,22.53
2019-04-06T11:19:26.757Z,24.43
2019-04-06T11:24:58.618Z,25.00
2019-04-06T11:30:38.766Z,25.23
2019-04-06T11:36:17.601Z,25.13
2019-04-06T11:41:55.472Z,24.30
2019-04-06T11:47:19.629Z,24.60
2019-04-06T11:52:49.753Z,26.93
2019-04-06T11:58:18.203Z,27.80
2019-04-06T12:03:30.716Z,25.77
2019-04-06T12:08:58.990Z,25.93
2019-04-06T12:14:17.047Z,27.40
2019-04-06T12:19:45.575Z,26.97
2019-04-06T12:25:15.129Z,25.83
2019-04-06T12:30:43.679Z,25.83
2019-04-06T12:36:09.296Z,26.83
2019-04-06T12:41:29.189Z,32.37
2019-04-06T12:46:47.449Z,27.17
2019-04-06T12:52:26.028Z,27.50
2019-04-06T12:58:00.871Z,28.70
2019-04-06T13:03:25.166Z,26.93
2019-04-06T13:08:39.521Z,27.80
2019-04-06T13:14:15.095Z,26.23
2019-04-06T13:19:52.139Z,27.33
2019-04-06T13:25:26.361Z,28.43
2019-04-06T13:30:46.412Z,27.62
2019-04-06T13:36:14.796Z,26.63
2019-04-06T13:41:42.746Z,27.37
2019-04-06T13:47:11.190Z,26.50
2019-04-06T13:52:28.859Z,26.70
2019-04-06T13:57:52.846Z,26.10
2019-04-06T14:03:27.290Z,24.60
2019-04-06T14:09:01.989Z,25.37
2019-04-06T14:14:29.559Z,24.23
2019-04-06T14:19:48.663Z,25.50
2019-04-06T14:25:10.738Z,24.57
2019-04-06T14:30:39.068Z,26.23
2019-04-06T14:36:03.159Z,24.27
2019-04-06T14:41:28.684Z,26.27
2019-04-06T14:46:54.368Z,28.07
2019-04-06T14:52:16.568Z,28.87
2019-04-06T14:57:41.961Z,27.45
2019-04-06T15:02:59.192Z,28.10
2019-04-06T15:08:23.356Z,27.27
2019-04-06T15:13:55.882Z,27.27
2019-04-06T15:19:27.000Z,29.07
2019-04-06T15:24:42.922Z,27.63
2019-04-06T15:30:07.480Z,28.07
2019-04-06T15:35:34.407Z,27.93
2019-04-06T15:40:59.005Z,29.47
2019-04-06T15:46:31.028Z,26.97
2019-04-06T15:51:54.606Z,27.67
2019-04-06T15:57:22.412Z,28.17
2019-04-06T16:02:46.665Z,28.63
2019-04-06T16:08:15.306Z,27.83
2019-04-06T16:13:33.532Z,28.87
2019-04-06T16:19:05.229Z,29.63
2019-04-06T16:24:48.912Z,34.30
2019-04-06T16:30:06.176Z,34.80
2019-04-06T16:35:25.747Z,34.63
2019-04-06T16:40:57.036Z,35.60
2019-04-06T16:46:20.322Z,35.10
2019-04-06T16:51:44.233Z,36.03
2019-04-06T16:57:16.048Z,36.13
2019-04-06T17:02:44.370Z,36.83
2019-04-06T17:08:10.209Z,42.67
2019-04-06T17:13:27.281Z,36.87
2019-04-06T17:18:52.506Z,39.75
2019-04-06T17:24:16.752Z,41.73
2019-04-06T17:29:30.128Z,39.83
2019-04-06T17:34:56.686Z,41.63
2019-04-06T17:40:17.851Z,41.30
2019-04-06T17:45:41.405Z,41.17
2019-04-06T17:51:16.601Z,42.20
2019-04-06T17:56:54.711Z,42.50
2019-04-06T18:02:11.645Z,41.93
2019-04-06T18:07:35.875Z,44.23
2019-04-06T18:12:48.581Z,44.67
2019-04-06T18:17:55.240Z,44.57
2019-04-06T18:23:01.693Z,44.45
2019-04-06T18:28:09.657Z,44.33
2019-04-06T18:33:19.975Z,54.93
2019-04-06T18:38:38.668Z,46.97
2019-04-06T18:43:45.465Z,48.20
2019-04-06T18:48:52.004Z,45.70
2019-04-06T18:53:58.637Z,48.30
2019-04-06T18:59:06.603Z,46.37
2019-04-06T19:04:14.158Z,46.37
2019-04-06T19:09:24.076Z,46.00
2019-04-06T19:14:29.629Z,45.88
2019-04-06T19:19:36.375Z,47.00
2019-04-06T19:24:43.182Z,45.90
2019-04-06T19:29:49.564Z,47.97
2019-04-06T19:34:56.194Z,46.97
2019-04-06T19:40:02.506Z,46.33
2019-04-06T19:45:09.340Z,45.63
2019-04-06T19:50:16.397Z,47.05
2019-04-06T19:55:22.995Z,47.60
2019-04-06T20:00:30.963Z,47.77
2019-04-06T20:05:37.287Z,49.83
2019-04-06T20:10:44.139Z,49.88
2019-04-06T20:15:50.875Z,48.73
2019-04-06T20:20:57.237Z,49.83
2019-04-06T20:26:04.695Z,52.37
2019-04-06T20:31:11.557Z,49.30
2019-04-06T20:36:18.247Z,52.23
2019-04-06T20:41:24.884Z,49.40
2019-04-06T20:46:31.251Z,49.20
2019-04-06T20:51:37.971Z,49.93
2019-04-06T20:56:53.837Z,50.27
2019-04-06T21:01:53.171Z,51.58
2019-04-06T21:06:59.944Z,50.53
2019-04-06T21:12:06.821Z,50.00
2019-04-06T21:17:13.252Z,50.27
2019-04-06T21:22:20.185Z,51.73
2019-04-06T21:27:27.106Z,51.13
2019-04-06T21:32:33.629Z,52.63
2019-04-06T21:37:40.027Z,53.47
2019-04-06T21:42:46.535Z,58.70
2019-04-06T21:47:53.067Z,60.67
2019-04-06T21:52:59.463Z,61.00
2019-04-06T21:58:05.805Z,60.43
2019-04-06T22:03:12.211Z,57.47
2019-04-06T22:08:18.807Z,54.88
2019-04-06T22:13:26.243Z,54.30
2019-04-06T22:18:34.391Z,54.25
2019-04-06T22:23:44.956Z,53.17
2019-04-06T22:28:50.840Z,54.73
2019-04-06T22:33:57.212Z,55.67
2019-04-06T22:39:06.173Z,53.37
2019-04-06T22:44:13.127Z,52.30
2019-04-06T22:49:22.757Z,55.27
2019-04-06T22:54:29.122Z,53.40
2019-04-06T22:59:35.658Z,58.05
2019-04-06T23:04:51.257Z,56.57
2019-04-06T23:09:57.694Z,57.50
2019-04-06T23:15:06.056Z,57.33
2019-04-06T23:20:12.960Z,58.87
2019-04-06T23:25:19.821Z,54.60
2019-04-06T23:30:26.528Z,56.07
2019-04-06T23:35:33.016Z,55.73
2019-04-06T23:40:39.525Z,57.77
2019-04-06T23:45:46.049Z,56.23
2019-04-06T23:50:52.408Z,58.23
2019-04-06T23:56:00.910Z,58.00
